Oconto, Wisconsin
Current Conditions -  °F | °C
As of 1:55 PM on Friday 24 Oct 2014 (Local Time) from KOCQ Reporting Station
Overcast Overcast  
Wind Chill: 12°   Ceiling: 1000
Heat Index: 12°   Visibility: 10mi
Dew Point: 10°   Wind: 7mph
Humidity: 86%   Direction: 240°WSW
Pressure: 29.93"   Gusts: NA
Location:  44.89°N, 87.86°W
Report Text: KOCQ 241855Z AUTO 24006KT 10SM OVC010 12/10 A2993 RMK AO1 T01180096
Loading
Personal Weather Stations






























Interactive Weather Map
Tropical Storm Tracking
New forecast layout! Learn more

10-Day Weather Forecast

Advertisements
Track Severe Weather on mobile